Flight Track Log - Related Links

Times and Time Zones

All times are in EDT time to prevent confusion due to time zone crossing. See the SAS19 flight status page for this flight to view local times or setup timezone preferences in your user account.

Time Position Orientation Groundspeed Altitude Reporting Facility
EDT Latitude Longitude Course Direction KTS MPH feet Rate Location/Type
Sun 01:30:15 PM 65.5173 22.0986 200° South  Level Estimated
Sun 01:31:15 PM 65.4113 22.0058 200° South  Level Estimated
Sun 01:32:15 PM 65.3053 21.9137 200° South  Level Estimated
Sun 01:33:15 PM 65.1992 21.8223 200° South  Level Estimated
Sun 01:34:15 PM 65.0930 21.7316 200° South  Level Estimated
Sun 01:35:15 PM 64.9868 21.6417 200° South  Level Estimated
Sun 01:36:15 PM 64.8806 21.5525 200° South  Level Estimated
Sun 01:37:15 PM 64.7743 21.4640 199° South  Level Estimated
Sun 01:38:15 PM 64.6680 21.3761 199° South  Level Estimated
Sun 01:39:15 PM 64.5615 21.2890 199° South  Level Estimated
Sun 01:40:15 PM 64.4551 21.2025 199° South  Level Estimated
Sun 01:41:15 PM 64.3486 21.1168 199° South  Level Estimated
Sun 01:42:15 PM 64.2420 21.0316 199° South  Level Estimated
Sun 01:43:15 PM 64.1354 20.9471 199° South  Level Estimated
Sun 01:44:15 PM 64.0288 20.8633 199° South  Level Estimated
Sun 01:45:15 PM 63.9221 20.7801 199° South  Level Estimated
Sun 01:46:15 PM 63.8153 20.6976 199° South  Level Estimated
Sun 01:47:15 PM 63.7085 20.6156 199° South  Level Estimated
Sun 01:48:15 PM 63.6017 20.5343 199° South  Level Estimated
Sun 01:49:15 PM 63.4948 20.4536 199° South  Level Estimated
Sun 01:50:15 PM 63.3879 20.3735 198° South  Level Estimated
Sun 01:51:15 PM 63.2809 20.2940 198° South  Level Estimated
Sun 01:52:15 PM 63.1739 20.2151 198° South  Level Estimated
Sun 01:53:15 PM 63.0668 20.1367 198° South  Level Estimated
Sun 01:54:15 PM 62.9597 20.0590 198° South  Level Estimated
Sun 01:55:15 PM 62.8526 19.9818 198° South  Level Estimated
Sun 01:56:15 PM 62.7454 19.9051 198° South  Level Estimated
Sun 01:57:15 PM 62.6381 19.8290 198° South  Level Estimated
Sun 01:58:15 PM 62.5309 19.7535 198° South  Level Estimated
Sun 01:59:15 PM 62.4236 19.6785 198° South  Level Estimated
Sun 02:00:15 PM 62.3162 19.6040 198° South  Level Estimated
Sun 02:01:15 PM 62.2088 19.5301 198° South  Level Estimated
Sun 02:02:15 PM 62.1014 19.4567 198° South  Level Estimated
Sun 02:03:15 PM 61.9939 19.3838 198° South  Level Estimated
Sun 02:04:15 PM 61.8864 19.3114 198° South  Level Estimated
Sun 02:05:15 PM 61.7789 19.2396 197° South  Level Estimated
Sun 02:06:15 PM 61.6713 19.1682 197° South  Level Estimated
Sun 02:07:15 PM 61.5636 19.0973 197° South  Level Estimated
Sun 02:08:15 PM 61.4560 19.0269 197° South  Level Estimated
Sun 02:09:15 PM 61.3483 18.9570 197° South  Level Estimated
Sun 02:10:15 PM 61.2406 18.8876 197° South  Level Estimated
Sun 02:11:15 PM 61.1328 18.8187 197° South  Level Estimated
Sun 02:12:15 PM 61.0250 18.7502 197° South  Level Estimated
Sun 02:13:15 PM 60.9172 18.6822 197° South  Level Estimated
Sun 02:14:15 PM 60.8093 18.6147 197° South  Level Estimated
Sun 02:15:15 PM 60.7014 18.5476 197° South  Level Estimated
Sun 02:16:15 PM 60.5935 18.4809 197° South  Level Estimated
Sun 02:17:15 PM 60.4855 18.4147 197° South  Level Estimated
Sun 02:18:15 PM 60.3775 18.3489 197° South  Level Estimated
Sun 02:19:15 PM 60.2695 18.2836 197° South  Level Estimated
Sun 02:20:15 PM 60.1614 18.2187 197° South  Level Estimated
Sun 02:21:15 PM 60.0533 18.1542 197° South  Level Estimated
Sun 02:22:15 PM 59.9452 18.0902 196° South  Level Estimated
Sun 02:23:15 PM 59.8370 18.0265 196° South  Level Estimated
Sun 02:24:15 PM 59.7289 17.9633 196° South  Level Estimated
Sun 02:25:15 PM 59.6206 17.9005 16° North  Level Estimated
Sun 02:26:15 PM 59.7289 17.9633 196° South  Level Estimated
Sun 02:27:15 PM 59.6206 17.9005 16° North  Level Estimated
Sun 02:28:15 PM 59.7289 17.9633 196° South  Level Estimated
Sun 02:29:15 PM 59.6206 17.9005 16° North  Level Estimated
Sun 02:30:15 PM 59.7289 17.9633 196° South  Level Estimated
Sun 02:31:15 PM 59.6206 17.9005 16° North  Level Estimated
Sun 02:32:15 PM 59.7289 17.9633 196° South  Level Estimated
Sun 02:33:15 PM 59.6206 17.9005 16° North  Level Estimated
Sun 02:34:15 PM 59.7289 17.9633 196° South  Level Estimated
Sun 02:35:15 PM 59.6206 17.9005 16° North  Level Estimated
Sun 02:36:15 PM 59.7289 17.9633 196° South  Level Estimated
Sun 02:37:15 PM 59.6206 17.9005 16° North  Level Estimated
Sun 02:38:15 PM 59.7289 17.9633 196° South  Level Estimated
Sun 02:39:15 PM 59.6206 17.9005 16° North  Level Estimated
Sun 02:40:15 PM 59.7289 17.9633 16° North  Level Estimated

Login

Don't have an account? Register now (free) for customized features, flight alerts, and more!